Time;durP1;ratioP1;P1;durP2;ratioP2;P2;SDS_P1;SDS_P2;PMS_P1;PMS_P2;Temp;Humidity;BMP_temperature;BMP_pressure;BME280_temperature;BME280_humidity;BME280_pressure;Samples;Min_cycle;Max_cycle;Signal;HPM_P1;HPM_P2
2023/01/24 00:01:42;;;;;;;4.97;3.80;;;;;;;7.17;61.71;95874.31;4962702;28;20197;-62
2023/01/24 00:04:07;;;;;;;5.20;3.20;;;;;;;7.23;61.72;95863.41;4963047;28;20364;-62
2023/01/24 00:06:33;;;;;;;4.80;3.70;;;;;;;7.22;62.01;95862.56;4962355;28;20288;-63
2023/01/24 00:08:58;;;;;;;4.03;3.47;;;;;;;7.24;61.68;95865.06;4946515;28;20236;-66
2023/01/24 00:11:24;;;;;;;4.03;3.63;;;;;;;7.14;62.24;95864.06;4946217;28;20252;-62
2023/01/24 00:13:49;;;;;;;4.37;3.40;;;;;;;7.29;61.65;95878.66;4944865;29;20200;-62
2023/01/24 00:16:17;;;;;;;5.37;3.90;;;;;;;7.32;61.65;95873.19;4946402;28;20220;-63
2023/01/24 00:18:43;;;;;;;4.13;3.73;;;;;;;7.39;61.20;95871.81;4965316;28;20268;-67
2023/01/24 00:21:12;;;;;;;5.20;4.30;;;;;;;7.37;61.34;95873.69;4946202;28;20228;-67
2023/01/24 00:23:43;;;;;;;4.60;4.17;;;;;;;7.40;61.16;95876.09;4979612;28;20224;-60
2023/01/24 00:26:09;;;;;;;4.93;4.20;;;;;;;7.39;61.41;95879.66;4961189;28;20280;-64
2023/01/24 00:28:34;;;;;;;6.10;4.30;;;;;;;7.17;61.62;95879.53;4945897;29;20236;-64
2023/01/24 00:31:01;;;;;;;6.03;4.37;;;;;;;7.33;61.20;95879.28;4945841;28;20248;-67
2023/01/24 00:33:26;;;;;;;4.43;3.80;;;;;;;7.22;61.47;95872.22;4942841;28;20234;-65
2023/01/24 00:35:52;;;;;;;6.53;4.00;;;;;;;7.30;60.97;95869.88;4945448;28;20221;-62
2023/01/24 00:38:19;;;;;;;4.70;4.13;;;;;;;7.16;61.67;95870.84;4954163;28;20197;-67
2023/01/24 00:40:45;;;;;;;4.57;4.00;;;;;;;7.21;61.60;95870.53;4948030;28;20209;-67
2023/01/24 00:43:10;;;;;;;5.93;4.83;;;;;;;7.24;61.45;95863.31;4945636;28;20217;-64
2023/01/24 00:45:37;;;;;;;5.17;4.67;;;;;;;7.23;61.48;95874.69;4944573;28;20243;-67
2023/01/24 00:48:04;;;;;;;4.27;3.80;;;;;;;7.32;61.32;95875.81;4932050;28;20285;-66
2023/01/24 00:50:30;;;;;;;6.63;4.53;;;;;;;7.32;61.27;95875.81;4916442;29;20230;-64
2023/01/24 00:52:55;;;;;;;5.03;4.53;;;;;;;7.29;61.23;95878.66;4931701;29;20201;-68
2023/01/24 00:55:20;;;;;;;4.63;4.13;;;;;;;7.29;61.19;95874.25;4934295;29;20225;-68
2023/01/24 00:57:46;;;;;;;5.33;4.33;;;;;;;7.11;62.06;95872.97;4932112;28;20281;-63
2023/01/24 01:00:12;;;;;;;4.70;4.30;;;;;;;7.21;61.79;95880.97;4931240;29;20232;-62
2023/01/24 01:02:38;;;;;;;5.77;4.90;;;;;;;7.22;61.66;95885.28;4935059;29;20244;-62
2023/01/24 01:05:04;;;;;;;4.77;4.27;;;;;;;7.16;61.88;95883.09;4932641;28;20217;-63
2023/01/24 01:07:30;;;;;;;5.33;4.27;;;;;;;7.28;61.31;95879.59;4916338;29;20205;-63
2023/01/24 01:09:55;;;;;;;5.70;4.70;;;;;;;7.34;61.19;95879.16;4917840;29;20226;-63
2023/01/24 01:12:21;;;;;;;5.00;4.50;;;;;;;7.29;60.73;95881.25;4918107;29;20230;-63
2023/01/24 01:14:46;;;;;;;5.57;4.50;;;;;;;7.27;61.27;95880.53;4916562;29;20257;-63
2023/01/24 01:17:12;;;;;;;6.33;4.67;;;;;;;7.31;61.03;95887.22;4915989;28;20185;-63
2023/01/24 01:19:37;;;;;;;5.43;4.63;;;;;;;7.25;60.94;95883.28;4926776;29;20226;-63
2023/01/24 01:22:03;;;;;;;5.80;4.63;;;;;;;7.09;61.31;95881.88;4936828;29;20229;-63
2023/01/24 01:24:28;;;;;;;4.97;4.13;;;;;;;7.12;60.96;95886.88;4937428;28;20313;-63
2023/01/24 01:26:53;;;;;;;5.53;4.60;;;;;;;7.20;60.56;95884.56;4936114;28;20232;-63
2023/01/24 01:29:19;;;;;;;5.67;4.33;;;;;;;7.14;60.70;95891.06;4937468;28;20182;-63
2023/01/24 01:31:44;;;;;;;6.00;4.70;;;;;;;7.05;61.05;95881.25;4939048;29;20204;-63
2023/01/24 01:34:10;;;;;;;5.03;4.53;;;;;;;7.10;60.65;95886.16;4934737;28;20223;-63
2023/01/24 01:36:36;;;;;;;5.40;4.90;;;;;;;7.09;60.55;95880.09;4923085;28;20300;-63
2023/01/24 01:39:01;;;;;;;5.67;4.77;;;;;;;7.17;60.76;95888.22;4915573;29;20408;-63
2023/01/24 01:41:27;;;;;;;6.13;4.77;;;;;;;7.03;61.20;95881.38;4914934;29;20235;-62
2023/01/24 01:46:51;;;;;;;5.60;4.80;;;;;;;7.06;59.99;95883.75;4927207;28;20300;-62
2023/01/24 01:49:24;;;;;;;6.57;5.30;;;;;;;6.94;60.49;95882.00;4932176;28;20220;-63
2023/01/24 01:51:52;;;;;;;6.63;5.17;;;;;;;6.90;60.74;95883.19;4921512;28;20294;-62
2023/01/24 01:54:25;;;;;;;7.73;4.83;;;;;;;6.94;60.91;95875.94;4916538;29;20252;-62
2023/01/24 01:57:00;;;;;;;6.77;5.40;;;;;;;6.97;61.21;95875.72;4911985;29;20261;-62
2023/01/24 01:59:38;;;;;;;7.00;5.47;;;;;;;6.89;61.06;95873.63;4913711;29;20226;-62
2023/01/24 02:02:06;;;;;;;6.33;4.67;;;;;;;7.07;60.70;95881.97;4915993;29;20244;-61
2023/01/24 02:04:34;;;;;;;5.00;4.33;;;;;;;7.09;60.52;95874.03;4915773;29;20190;-62
2023/01/24 02:07:15;;;;;;;5.97;5.03;;;;;;;7.09;60.67;95879.25;4918804;29;20232;-62
2023/01/24 02:09:43;;;;;;;5.77;4.20;;;;;;;7.04;60.53;95869.94;4929249;29;20233;-62
2023/01/24 02:12:47;;;;;;;4.33;3.80;;;;;;;7.00;60.87;95878.97;4936195;28;20362;-62
2023/01/24 02:18:03;;;;;;;5.20;4.60;;;;;;;6.94;60.78;95871.53;4937928;28;20725;-62
2023/01/24 02:20:48;;;;;;;6.40;5.20;;;;;;;6.93;61.07;95872.50;4923211;28;20218;-62
2023/01/24 02:23:16;;;;;;;6.27;4.80;;;;;;;6.85;61.15;95874.81;4925366;28;20300;-62
2023/01/24 02:25:47;;;;;;;5.03;4.37;;;;;;;6.83;61.16;95869.69;4934644;29;20260;-62
2023/01/24 02:28:13;;;;;;;4.57;3.93;;;;;;;6.80;61.39;95871.69;4918938;29;20269;-62
2023/01/24 02:30:39;;;;;;;5.13;3.97;;;;;;;6.89;61.73;95875.44;4914562;28;20300;-62
2023/01/24 02:33:12;;;;;;;6.33;4.03;;;;;;;6.91;61.34;95868.31;4940887;28;20230;-63
2023/01/24 02:35:38;;;;;;;5.93;4.40;;;;;;;6.87;61.46;95879.91;4915698;28;20321;-62
2023/01/24 02:38:06;;;;;;;4.40;4.00;;;;;;;6.78;61.75;95863.94;4932538;28;20281;-62
2023/01/24 02:40:33;;;;;;;5.80;4.40;;;;;;;6.84;61.58;95865.28;4952658;28;20201;-63
2023/01/24 02:43:03;;;;;;;3.87;3.40;;;;;;;6.80;61.93;95876.91;4934593;28;20225;-62
2023/01/24 02:45:30;;;;;;;4.20;3.33;;;;;;;6.81;61.33;95866.34;4915584;28;20238;-62
2023/01/24 02:47:56;;;;;;;5.07;3.13;;;;;;;6.87;61.32;95872.94;4906783;29;20221;-62
2023/01/24 02:50:24;;;;;;;4.10;3.70;;;;;;;6.91;61.00;95874.38;4914244;29;20202;-62
2023/01/24 02:58:05;;;;;;;4.20;3.67;;;;;;;6.80;61.07;95872.50;4913142;29;20229;-63
2023/01/24 02:58:24;;;;;;;4.43;3.70;;;;;;;6.78;61.37;95865.72;4931390;29;20221;-63
2023/01/24 03:00:50;;;;;;;4.13;3.73;;;;;;;6.81;61.16;95873.34;4937124;28;20277;-63
2023/01/24 03:03:15;;;;;;;3.83;3.43;;;;;;;6.79;60.92;95867.38;4929901;29;20369;-63
2023/01/24 03:05:56;;;;;;;3.50;3.20;;;;;;;6.83;60.89;95866.25;4926165;28;20266;-63
2023/01/24 03:08:26;;;;;;;4.30;3.90;;;;;;;6.81;61.14;95865.50;4915142;29;20190;-64
2023/01/24 03:10:52;;;;;;;4.17;3.30;;;;;;;6.71;61.59;95865.34;4913011;29;20194;-63
2023/01/24 03:35:12;;;;;;;4.90;3.63;;;;;;;6.62;61.55;95863.34;4915753;28;20205;-63
2023/01/24 03:40:21;;;;;;;4.13;3.73;;;;;;;6.44;62.33;95859.38;4932342;28;20244;-62
2023/01/24 03:42:50;;;;;;;4.73;3.90;;;;;;;6.34;62.42;95862.66;4932227;28;20232;-62
2023/01/24 03:45:17;;;;;;;3.97;3.57;;;;;;;6.40;62.27;95866.63;4936573;28;20252;-63
2023/01/24 03:48:04;;;;;;;4.07;3.70;;;;;;;6.57;61.77;95865.44;4933385;28;20714;-63
2023/01/24 03:53:25;;;;;;;3.80;3.47;;;;;;;6.58;61.88;95861.91;4935023;28;22004;-62
2023/01/24 03:55:55;;;;;;;4.53;3.30;;;;;;;6.35;62.17;95858.25;4932296;29;20181;-62
2023/01/24 03:58:22;;;;;;;3.53;3.20;;;;;;;6.36;62.34;95857.31;4912857;28;20218;-62
2023/01/24 04:00:48;;;;;;;4.23;3.87;;;;;;;6.41;62.24;95857.81;4906665;29;20218;-62
2023/01/24 04:03:13;;;;;;;3.80;3.50;;;;;;;6.41;62.11;95855.22;4910648;29;20230;-62
2023/01/24 04:05:39;;;;;;;4.33;3.93;;;;;;;6.44;61.89;95849.78;4916608;29;20241;-62
2023/01/24 04:08:05;;;;;;;4.57;4.17;;;;;;;6.37;62.38;95848.53;4931389;28;20198;-62
2023/01/24 04:10:31;;;;;;;3.97;3.60;;;;;;;6.47;62.03;95854.81;4931567;29;20616;-62
2023/01/24 04:12:57;;;;;;;3.57;3.17;;;;;;;6.45;62.23;95850.63;4935509;28;20225;-62
2023/01/24 04:15:31;;;;;;;4.47;3.87;;;;;;;6.57;61.37;95853.19;4919501;28;20225;-62
2023/01/24 04:17:58;;;;;;;4.33;3.93;;;;;;;6.53;61.72;95848.31;4936300;28;20228;-62
2023/01/24 04:20:26;;;;;;;3.93;3.57;;;;;;;6.51;61.42;95848.41;4925252;28;20257;-63
2023/01/24 04:22:52;;;;;;;5.87;3.53;;;;;;;6.52;61.29;95847.50;4937106;28;20233;-64
2023/01/24 04:25:18;;;;;;;4.47;4.07;;;;;;;6.48;61.58;95848.63;4936624;29;20261;-64
2023/01/24 04:27:44;;;;;;;4.30;3.73;;;;;;;6.40;61.76;95843.09;4931142;28;20418;-63
2023/01/24 04:30:11;;;;;;;4.40;3.83;;;;;;;6.50;61.11;95836.31;4952141;28;20237;-63
2023/01/24 04:32:37;;;;;;;3.70;3.40;;;;;;;6.54;61.28;95847.38;4917781;29;20726;-63
2023/01/24 04:35:04;;;;;;;5.27;3.30;;;;;;;6.54;61.22;95850.81;4918688;29;20285;-63
2023/01/24 04:37:30;;;;;;;3.47;3.17;;;;;;;6.52;61.05;95855.31;4932520;29;20289;-63
2023/01/24 04:39:55;;;;;;;6.27;3.30;;;;;;;6.46;60.86;95845.28;4919837;29;20296;-63
2023/01/24 04:42:21;;;;;;;3.60;3.30;;;;;;;6.37;61.10;95845.94;4921050;29;20249;-63
2023/01/24 04:44:46;;;;;;;4.40;3.77;;;;;;;6.29;61.67;95853.47;4917999;29;20230;-63
2023/01/24 04:47:12;;;;;;;3.77;3.30;;;;;;;6.36;61.46;95852.06;4929622;29;20241;-63
2023/01/24 04:49:37;;;;;;;3.47;3.20;;;;;;;6.44;61.25;95854.16;4914283;29;20221;-63
2023/01/24 04:52:03;;;;;;;4.83;3.47;;;;;;;6.49;61.13;95858.13;4917103;29;20230;-62
2023/01/24 04:54:28;;;;;;;4.27;3.87;;;;;;;6.49;60.70;95862.53;4928463;29;20218;-63
2023/01/24 04:56:54;;;;;;;4.80;4.30;;;;;;;6.36;61.14;95857.31;4912682;29;20219;-63
2023/01/24 04:59:19;;;;;;;3.83;3.43;;;;;;;6.16;61.74;95851.66;4915911;28;20249;-63
2023/01/24 05:01:45;;;;;;;5.57;4.30;;;;;;;6.33;61.16;95854.91;4941523;29;20208;-62
2023/01/24 05:04:10;;;;;;;4.10;3.70;;;;;;;6.39;60.88;95857.13;4939671;28;20224;-62
2023/01/24 05:06:35;;;;;;;4.17;3.77;;;;;;;6.23;61.47;95861.69;4938476;28;20956;-62
2023/01/24 05:09:02;;;;;;;3.77;3.33;;;;;;;6.40;60.96;95864.00;4926374;28;20222;-62
2023/01/24 05:11:27;;;;;;;4.93;4.40;;;;;;;6.41;60.82;95870.88;4910765;29;20347;-62
2023/01/24 05:13:52;;;;;;;5.77;4.10;;;;;;;6.28;61.45;95870.06;4915636;29;20198;-62
2023/01/24 05:16:18;;;;;;;4.87;4.40;;;;;;;6.15;61.77;95883.97;4933508;29;20221;-62
2023/01/24 05:18:44;;;;;;;5.50;4.90;;;;;;;6.14;61.87;95878.81;4922333;29;20222;-62
2023/01/24 05:21:14;;;;;;;4.73;4.27;;;;;;;6.30;61.64;95878.63;4916907;28;20230;-65
2023/01/24 05:23:41;;;;;;;5.80;4.23;;;;;;;6.31;61.28;95881.16;4915126;29;20226;-62
2023/01/24 05:26:07;;;;;;;7.47;4.17;;;;;;;6.40;61.13;95890.94;4914992;28;20221;-65
2023/01/24 05:28:33;;;;;;;6.17;4.20;;;;;;;6.21;61.63;95905.38;4934796;29;20352;-66
2023/01/24 05:30:59;;;;;;;4.43;3.73;;;;;;;6.07;61.50;95909.75;4932906;28;20307;-66
2023/01/24 05:33:25;;;;;;;5.57;3.10;;;;;;;6.18;61.48;95912.47;4931360;28;20705;-64
2023/01/24 05:36:25;;;;;;;3.63;3.23;;;;;;;6.20;61.32;95907.13;4923903;28;20230;-67
2023/01/24 05:38:51;;;;;;;5.23;3.70;;;;;;;6.13;61.54;95914.56;4922361;29;20249;-63
2023/01/24 05:41:19;;;;;;;3.97;3.47;;;;;;;6.15;61.54;95907.47;4934726;28;20235;-63
2023/01/24 05:43:48;;;;;;;4.80;4.30;;;;;;;6.22;61.30;95915.72;4936314;28;20221;-65
2023/01/24 05:46:19;;;;;;;5.77;4.53;;;;;;;5.95;61.94;95916.59;4933428;28;20229;-66
2023/01/24 05:48:46;;;;;;;4.87;3.93;;;;;;;5.97;62.12;95919.13;4914779;28;20218;-66
2023/01/24 05:51:14;;;;;;;5.30;4.63;;;;;;;5.98;61.90;95920.78;4926147;29;20226;-60
2023/01/24 05:53:41;;;;;;;5.90;4.53;;;;;;;6.00;61.92;95928.53;4914981;28;20234;-63
2023/01/24 05:56:13;;;;;;;5.57;4.20;;;;;;;6.03;61.98;95929.16;4932804;28;20252;-65
2023/01/24 05:58:39;;;;;;;6.03;4.23;;;;;;;6.11;61.77;95937.31;4933870;29;20209;-61
2023/01/24 06:01:10;;;;;;;6.00;4.57;;;;;;;5.92;62.16;95929.00;4940137;28;20236;-64
2023/01/24 06:03:43;;;;;;;5.80;4.37;;;;;;;6.06;62.23;95938.56;4931443;28;20218;-66
2023/01/24 06:06:11;;;;;;;6.80;4.10;;;;;;;6.03;62.37;95944.81;4942389;28;20230;-65
2023/01/24 06:08:36;;;;;;;7.07;4.93;;;;;;;6.03;61.90;95950.03;4914409;29;20226;-67
2023/01/24 06:11:09;;;;;;;5.67;4.17;;;;;;;5.98;62.25;95946.91;4915837;29;20281;-66
2023/01/24 06:13:35;;;;;;;5.83;4.40;;;;;;;5.98;62.02;95946.91;4923930;29;20240;-63
2023/01/24 06:16:15;;;;;;;5.23;4.60;;;;;;;5.95;61.89;95952.31;4932173;29;20257;-67
2023/01/24 06:18:41;;;;;;;6.93;4.43;;;;;;;6.05;61.80;95952.56;4926359;28;20257;-63
2023/01/24 06:21:31;;;;;;;7.77;5.03;;;;;;;6.02;61.64;95953.59;4931767;29;20753;-59
2023/01/24 06:23:56;;;;;;;5.40;4.90;;;;;;;5.93;62.29;95949.84;4926915;28;20309;-64
2023/01/24 06:26:22;;;;;;;8.33;5.27;;;;;;;6.02;62.16;95961.44;4925763;28;20217;-60
2023/01/24 06:28:48;;;;;;;5.53;4.73;;;;;;;6.00;62.19;95960.69;4915935;29;20198;-66
2023/01/24 06:31:33;;;;;;;8.37;5.17;;;;;;;6.11;62.19;95963.44;4932100;28;20221;-62
2023/01/24 06:34:05;;;;;;;6.27;5.10;;;;;;;5.99;63.06;95963.38;4933542;28;20312;-67
2023/01/24 06:36:36;;;;;;;6.87;5.23;;;;;;;5.93;63.39;95969.81;4932248;29;20236;-65
2023/01/24 06:39:02;;;;;;;5.90;5.30;;;;;;;5.85;63.57;95982.53;4950679;28;20214;-60
2023/01/24 06:41:28;;;;;;;6.77;5.10;;;;;;;5.89;63.73;95974.41;4927642;28;20222;-63
2023/01/24 06:43:53;;;;;;;9.17;6.23;;;;;;;5.80;64.20;95979.38;4916066;29;20204;-63
2023/01/24 06:46:19;;;;;;;6.20;5.60;;;;;;;5.79;64.58;95986.38;4931120;28;21323;-64
2023/01/24 06:48:45;;;;;;;8.63;5.60;;;;;;;5.76;64.11;95983.97;4919866;28;20222;-63
2023/01/24 06:51:14;;;;;;;7.57;5.43;;;;;;;5.79;63.93;95981.16;4917777;29;20226;-63
2023/01/24 06:53:40;;;;;;;6.00;5.30;;;;;;;5.76;63.97;95978.75;4913880;29;20226;-65
2023/01/24 06:56:06;;;;;;;6.23;5.63;;;;;;;5.65;64.10;95976.00;4909575;29;20270;-65
2023/01/24 06:58:32;;;;;;;6.13;4.77;;;;;;;5.76;64.01;95983.97;4911470;29;20284;-64
2023/01/24 07:00:57;;;;;;;5.57;4.77;;;;;;;5.83;63.68;95990.47;4911026;29;20390;-61
2023/01/24 07:03:22;;;;;;;5.00;4.37;;;;;;;5.80;62.36;95987.22;4910609;29;20226;-66
2023/01/24 07:05:48;;;;;;;6.10;4.97;;;;;;;5.76;62.70;95999.63;4914431;29;20237;-66
2023/01/24 07:08:14;;;;;;;6.83;5.37;;;;;;;5.63;64.04;95986.53;4910652;29;20198;-64
2023/01/24 07:10:39;;;;;;;5.73;5.17;;;;;;;5.59;63.76;95984.22;4912290;29;20206;-64
2023/01/24 07:13:05;;;;;;;5.50;5.00;;;;;;;5.71;63.90;95994.69;4911587;29;20567;-64
2023/01/24 07:15:30;;;;;;;6.83;5.43;;;;;;;5.61;64.07;95990.16;4912490;29;20222;-66
2023/01/24 07:17:56;;;;;;;8.93;5.97;;;;;;;5.63;63.95;95991.75;4908598;29;20234;-64
2023/01/24 07:20:22;;;;;;;7.20;6.00;;;;;;;5.79;63.84;95999.44;4911318;28;20200;-61
2023/01/24 07:22:48;;;;;;;6.77;6.03;;;;;;;5.58;63.98;96004.25;4933368;29;20819;-65
2023/01/24 07:25:20;;;;;;;8.27;7.13;;;;;;;5.74;63.88;96009.31;4912188;28;20242;-62
2023/01/24 07:27:46;;;;;;;7.87;7.00;;;;;;;5.56;64.17;96003.53;4908945;29;20241;-61
2023/01/24 07:30:13;;;;;;;7.50;6.60;;;;;;;5.85;63.62;96004.25;4907203;29;20226;-64
2023/01/24 07:32:38;;;;;;;10.10;6.43;;;;;;;5.85;63.57;96003.41;4904955;29;20226;-63
2023/01/24 07:35:05;;;;;;;7.43;6.63;;;;;;;5.79;63.08;96001.22;4908736;29;20246;-62
2023/01/24 07:37:31;;;;;;;6.33;5.50;;;;;;;5.56;63.84;96008.75;4910178;29;20201;-64
2023/01/24 07:39:57;;;;;;;6.53;5.83;;;;;;;5.56;63.78;96002.66;4932006;29;20217;-65
2023/01/24 07:42:22;;;;;;;6.47;5.80;;;;;;;5.68;63.41;96018.38;4925661;28;20224;-65
2023/01/24 07:44:48;;;;;;;6.37;5.20;;;;;;;5.56;63.59;96013.97;4962071;28;20240;-65
2023/01/24 07:47:13;;;;;;;7.60;4.63;;;;;;;5.60;63.77;96014.59;4939456;28;20228;-66
2023/01/24 07:49:39;;;;;;;5.53;5.03;;;;;;;5.50;64.35;96030.81;4932167;29;20205;-65
2023/01/24 07:52:04;;;;;;;6.40;5.33;;;;;;;5.53;64.87;96029.78;4934510;28;20231;-66
2023/01/24 07:54:30;;;;;;;5.93;5.17;;;;;;;5.77;63.86;96022.16;4918383;29;20225;-66
2023/01/24 07:56:55;;;;;;;7.40;6.37;;;;;;;5.70;64.71;96029.56;4931359;28;20225;-62
2023/01/24 07:59:21;;;;;;;6.17;5.20;;;;;;;5.70;64.36;96032.19;4935565;28;20201;-68
2023/01/24 08:01:46;;;;;;;5.10;4.60;;;;;;;5.60;64.19;96038.91;4914180;29;20202;-68
2023/01/24 08:04:11;;;;;;;5.70;5.20;;;;;;;5.66;64.28;96040.28;4916604;28;20233;-67
2023/01/24 08:07:16;;;;;;;6.00;5.40;;;;;;;5.60;65.07;96041.50;4918931;28;20309;-67
2023/01/24 08:09:24;;;;;;;6.83;5.27;;;;;;;5.47;65.25;96049.25;4922521;28;20218;-68
2023/01/24 08:11:49;;;;;;;4.97;4.47;;;;;;;5.61;64.92;96032.75;4949194;28;20225;-68
2023/01/24 08:14:15;;;;;;;5.33;4.10;;;;;;;5.71;64.01;96041.66;4918328;28;20205;-68
2023/01/24 08:16:40;;;;;;;4.90;3.53;;;;;;;5.74;64.01;96038.03;4930439;29;20195;-68
2023/01/24 08:19:06;;;;;;;3.90;3.50;;;;;;;5.78;63.42;96033.47;4917161;29;20222;-65
2023/01/24 08:21:31;;;;;;;3.87;3.40;;;;;;;5.69;63.34;96035.72;4948942;28;20277;-66
2023/01/24 08:23:56;;;;;;;3.47;3.17;;;;;;;5.43;63.95;96039.13;4917649;29;20207;-66
2023/01/24 08:26:22;;;;;;;4.40;3.77;;;;;;;5.53;64.40;96040.22;4917957;28;20296;-66
2023/01/24 08:28:47;;;;;;;3.63;3.33;;;;;;;5.63;63.93;96038.72;4936591;29;20284;-65
2023/01/24 08:31:13;;;;;;;4.93;4.40;;;;;;;5.63;64.25;96046.53;4927941;28;20308;-62
2023/01/24 08:33:38;;;;;;;4.40;3.63;;;;;;;5.65;64.13;96039.47;4935282;28;20333;-62
2023/01/24 08:36:04;;;;;;;3.87;3.40;;;;;;;5.68;64.25;96046.25;4935735;28;20224;-63
2023/01/24 08:38:30;;;;;;;4.70;3.63;;;;;;;5.52;64.50;96041.16;4935780;28;20229;-67
2023/01/24 08:40:55;;;;;;;6.30;4.13;;;;;;;5.54;65.07;96041.91;4936926;29;20193;-67
2023/01/24 08:43:20;;;;;;;6.17;4.50;;;;;;;5.58;65.05;96045.16;4912249;28;20230;-69
2023/01/24 08:45:47;;;;;;;5.77;4.87;;;;;;;5.80;64.89;96047.25;4909497;29;20253;-63
2023/01/24 08:48:12;;;;;;;5.67;5.00;;;;;;;5.78;65.30;96038.69;4909608;29;20225;-61
2023/01/24 08:50:37;;;;;;;5.10;4.60;;;;;;;5.42;66.04;96038.28;4917575;29;20227;-60
2023/01/24 08:53:03;;;;;;;7.00;5.17;;;;;;;5.57;65.86;96052.16;4928406;29;20194;-63
2023/01/24 08:55:28;;;;;;;5.37;4.87;;;;;;;5.69;66.11;96040.94;4916738;29;20296;-63
2023/01/24 08:58:00;;;;;;;5.13;4.33;;;;;;;5.99;64.42;96045.19;4912103;29;20230;-64
2023/01/24 09:00:25;;;;;;;5.47;4.77;;;;;;;6.10;64.50;96040.09;4914816;29;20312;-69
2023/01/24 09:02:51;;;;;;;6.50;4.50;;;;;;;6.24;63.90;96038.38;4925202;28;20653;-65
2023/01/24 09:05:16;;;;;;;5.17;4.57;;;;;;;5.88;64.50;96039.75;4911592;29;20233;-64
2023/01/24 09:07:41;;;;;;;5.60;4.70;;;;;;;5.92;64.68;96030.81;4908477;29;20199;-63
2023/01/24 09:10:08;;;;;;;4.30;3.90;;;;;;;6.04;64.12;96037.91;4924929;29;20225;-66
2023/01/24 09:12:33;;;;;;;4.43;3.67;;;;;;;6.21;64.05;96033.34;4905847;29;20296;-61
2023/01/24 09:14:59;;;;;;;3.70;3.30;;;;;;;6.01;63.33;96038.06;4913644;29;20222;-65
2023/01/24 09:17:24;;;;;;;3.53;3.23;;;;;;;6.23;63.58;96040.16;4911938;29;20229;-64
2023/01/24 09:19:50;;;;;;;4.50;4.10;;;;;;;6.23;63.09;96040.16;4912275;29;20198;-65
2023/01/24 09:22:15;;;;;;;3.80;3.50;;;;;;;6.14;63.88;96040.72;4928904;29;20253;-62
2023/01/24 09:24:41;;;;;;;4.50;4.10;;;;;;;6.29;63.38;96038.91;4930887;28;20326;-62
2023/01/24 09:27:06;;;;;;;6.50;4.50;;;;;;;6.34;62.69;96035.06;4935116;28;20232;-62
2023/01/24 09:29:32;;;;;;;4.50;3.60;;;;;;;6.29;62.93;96038.91;4932793;28;20226;-66
2023/01/24 09:31:57;;;;;;;4.53;3.97;;;;;;;6.07;64.42;96042.91;4930183;29;20194;-60
2023/01/24 09:34:22;;;;;;;4.80;4.40;;;;;;;6.45;62.90;96036.97;4929374;29;20230;-64
2023/01/24 09:36:49;;;;;;;4.80;3.80;;;;;;;6.62;62.39;96041.06;4929855;28;20252;-63
2023/01/24 09:39:15;;;;;;;4.13;3.40;;;;;;;6.57;62.70;96033.50;4910794;29;20214;-61
2023/01/24 09:42:02;;;;;;;4.17;3.77;;;;;;;6.60;62.71;96037.69;4917657;29;20218;-67
2023/01/24 09:44:36;;;;;;;5.27;4.77;;;;;;;6.68;62.55;96034.56;4927069;28;20330;-68
2023/01/24 09:47:15;;;;;;;5.00;4.53;;;;;;;6.75;62.70;96034.06;4949047;28;20256;-63
2023/01/24 09:49:47;;;;;;;4.00;3.60;;;;;;;6.68;61.98;96030.19;4947428;28;20259;-63
2023/01/24 09:52:21;;;;;;;4.43;3.80;;;;;;;6.65;62.49;96021.72;4926121;28;20323;-63
2023/01/24 09:55:12;;;;;;;4.43;3.93;;;;;;;6.66;63.11;96036.47;4919221;29;20225;-68
2023/01/24 09:57:58;;;;;;;5.37;4.40;;;;;;;6.80;62.78;96033.75;4930750;28;20221;-67
2023/01/24 10:00:26;;;;;;;4.73;4.23;;;;;;;6.62;61.99;96020.97;4940162;29;20222;-66
2023/01/24 10:02:55;;;;;;;4.43;4.03;;;;;;;6.55;62.65;96022.34;4929244;29;20261;-65
2023/01/24 10:05:24;;;;;;;5.03;4.43;;;;;;;6.54;63.07;96028.50;4929126;28;20220;-66
2023/01/24 10:08:16;;;;;;;5.20;4.70;;;;;;;6.67;62.40;96014.63;4930472;29;20186;-66
2023/01/24 10:11:13;;;;;;;5.63;5.03;;;;;;;6.74;62.67;96023.72;4912499;29;20226;-66
2023/01/24 10:14:03;;;;;;;4.80;4.40;;;;;;;6.34;63.39;96013.31;4917799;29;20317;-68
2023/01/24 10:17:00;;;;;;;4.03;3.50;;;;;;;6.31;63.38;96008.31;4922492;29;20218;-66
2023/01/24 10:19:40;;;;;;;4.70;3.70;;;;;;;6.23;64.52;96007.94;4913085;28;20230;-66
2023/01/24 10:22:09;;;;;;;3.57;3.10;;;;;;;6.52;62.25;96006.03;4926946;28;20245;-66
2023/01/24 10:24:41;;;;;;;3.70;3.10;;;;;;;6.60;62.83;96012.44;4923564;29;20230;-67
2023/01/24 10:27:38;;;;;;;3.57;2.83;;;;;;;6.65;61.81;96013.88;4942233;28;20237;-67
2023/01/24 10:30:40;;;;;;;2.60;2.40;;;;;;;6.49;63.11;96008.84;4929277;28;20229;-67
2023/01/24 10:33:14;;;;;;;3.27;2.60;;;;;;;6.72;62.36;96007.31;4875049;29;20230;-67
2023/01/24 10:36:07;;;;;;;3.67;2.70;;;;;;;6.71;62.20;96003.00;4884682;29;20288;-69
2023/01/24 10:38:32;;;;;;;3.10;2.80;;;;;;;6.63;62.18;95998.31;4856480;29;20235;-68
2023/01/24 10:41:18;;;;;;;3.53;2.97;;;;;;;6.76;62.11;96000.91;4858759;29;20198;-67
2023/01/24 10:43:49;;;;;;;5.00;4.47;;;;;;;6.73;62.17;96004.56;4871093;29;20238;-68
2023/01/24 10:46:29;;;;;;;3.40;2.97;;;;;;;6.61;62.03;96000.19;4870253;29;20295;-68
2023/01/24 10:48:58;;;;;;;4.17;3.53;;;;;;;6.76;61.66;96006.13;4857256;29;20266;-68
2023/01/24 10:51:24;;;;;;;4.37;2.87;;;;;;;6.57;61.70;95998.72;4878557;29;20233;-67
2023/01/24 10:53:50;;;;;;;3.33;3.03;;;;;;;6.43;62.61;96001.41;4871276;29;20234;-68
2023/01/24 10:56:19;;;;;;;2.87;2.47;;;;;;;6.55;61.49;96003.22;4872487;29;20199;-67
2023/01/24 10:59:17;;;;;;;2.87;2.53;;;;;;;6.39;62.12;95993.78;4857651;29;20427;-68
2023/01/24 11:01:48;;;;;;;2.80;2.60;;;;;;;6.40;62.59;95997.22;4871842;29;20266;-67
2023/01/24 11:04:25;;;;;;;3.77;3.33;;;;;;;6.44;62.46;95997.84;4858670;29;20241;-65
2023/01/24 11:06:51;;;;;;;3.73;2.70;;;;;;;6.43;62.07;95997.03;4872636;29;20237;-65
2023/01/24 11:09:24;;;;;;;4.00;3.10;;;;;;;6.16;63.09;95989.25;4880571;29;20218;-64
2023/01/24 11:11:52;;;;;;;2.30;2.10;;;;;;;6.01;63.30;96000.69;4917484;29;20240;-67
2023/01/24 11:14:27;;;;;;;2.57;2.07;;;;;;;6.05;63.31;95987.34;4933022;29;20208;-63
2023/01/24 11:16:58;;;;;;;2.50;2.27;;;;;;;6.12;62.76;95999.06;4927819;29;20189;-67
2023/01/24 11:19:28;;;;;;;3.60;2.13;;;;;;;6.21;62.51;95992.41;4906518;29;20353;-67
2023/01/24 11:21:56;;;;;;;1.70;1.60;;;;;;;6.16;62.04;95986.63;4929361;29;20269;-65
2023/01/24 11:24:22;;;;;;;1.70;1.60;;;;;;;6.15;61.85;95988.41;4915680;29;20244;-61
2023/01/24 11:27:18;;;;;;;1.70;1.60;;;;;;;6.30;62.39;95977.88;4912537;29;20233;-67
2023/01/24 11:30:18;;;;;;;2.80;2.00;;;;;;;6.23;62.68;95982.69;4874610;29;20545;-66
2023/01/24 11:32:52;;;;;;;3.10;2.80;;;;;;;6.02;63.06;95981.50;4872788;29;20234;-65
2023/01/24 11:35:24;;;;;;;3.60;2.57;;;;;;;5.95;63.64;95974.03;4861711;29;20225;-64
2023/01/24 11:37:49;;;;;;;3.83;2.90;;;;;;;5.70;63.98;95977.38;4859442;29;20215;-63
2023/01/24 11:40:40;;;;;;;3.00;2.70;;;;;;;5.98;63.63;95973.00;4886669;29;20238;-65
2023/01/24 11:43:08;;;;;;;3.20;2.70;;;;;;;6.05;63.54;95971.66;4871597;29;20227;-65
2023/01/24 11:45:58;;;;;;;4.20;2.83;;;;;;;6.03;63.46;95970.09;4892190;29;20407;-63
2023/01/24 11:48:35;;;;;;;2.60;2.33;;;;;;;5.99;63.48;95969.47;4907872;29;20238;-66
2023/01/24 11:51:05;;;;;;;4.97;3.67;;;;;;;6.03;63.80;95964.88;4891880;29;20236;-62
2023/01/24 11:53:50;;;;;;;3.27;2.67;;;;;;;5.89;63.83;95974.41;4877885;29;20230;-65
2023/01/24 11:56:28;;;;;;;4.30;2.67;;;;;;;6.11;63.35;95965.22;4878573;29;20665;-62
2023/01/24 11:59:11;;;;;;;3.10;2.80;;;;;;;6.23;63.70;95961.78;4893076;29;20214;-61
2023/01/24 12:01:58;;;;;;;3.90;2.53;;;;;;;6.10;63.44;95964.38;4918496;29;20258;-63
2023/01/24 12:04:29;;;;;;;2.67;2.47;;;;;;;6.26;63.20;95965.97;4858932;29;20231;-66
2023/01/24 12:07:07;;;;;;;2.70;2.50;;;;;;;6.22;62.97;95965.31;4899002;29;20276;-64
2023/01/24 12:10:04;;;;;;;2.30;2.03;;;;;;;6.37;62.16;95969.53;4917174;29;20249;-63
2023/01/24 12:12:42;;;;;;;3.03;2.07;;;;;;;6.26;62.30;95965.97;4911465;29;20234;-60
2023/01/24 12:15:29;;;;;;;3.00;2.57;;;;;;;6.09;63.10;95972.28;4897196;29;20230;-67
2023/01/24 12:18:23;;;;;;;3.57;2.63;;;;;;;6.07;63.02;95975.03;4908320;29;20234;-67
2023/01/24 12:21:10;;;;;;;3.63;2.50;;;;;;;6.24;62.86;95967.84;4894621;29;20297;-65
2023/01/24 12:24:02;;;;;;;2.77;2.30;;;;;;;6.20;62.83;95969.81;4909872;29;20229;-68
2023/01/24 12:26:35;;;;;;;2.90;2.50;;;;;;;6.00;63.65;95976.34;4910784;29;20241;-64
2023/01/24 12:29:22;;;;;;;3.60;3.27;;;;;;;5.93;63.86;95969.81;4892243;29;20210;-61
2023/01/24 12:32:09;;;;;;;2.70;2.50;;;;;;;6.08;63.37;95978.47;4889517;29;20214;-66